createdAt,value
2019-05-09T00:02:08.216Z,27.60
2019-05-09T00:04:39.756Z,18.92
2019-05-09T00:07:11.339Z,25.48
2019-05-09T00:09:44.094Z,19.87
2019-05-09T00:12:15.410Z,22.48
2019-05-09T00:14:46.997Z,25.97
2019-05-09T00:17:18.072Z,18.00
2019-05-09T00:19:49.428Z,24.35
2019-05-09T00:22:20.795Z,26.02
2019-05-09T00:24:53.953Z,28.62
2019-05-09T00:27:25.185Z,31.73
2019-05-09T00:29:56.639Z,28.30
2019-05-09T00:32:34.067Z,20.45
2019-05-09T00:35:23.534Z,27.35
2019-05-09T00:37:57.475Z,27.13
2019-05-09T00:40:29.086Z,32.17
2019-05-09T00:43:00.647Z,30.70
2019-05-09T00:45:48.790Z,33.73
2019-05-09T00:48:23.055Z,33.35
2019-05-09T00:50:54.545Z,27.37
2019-05-09T00:53:25.628Z,34.15
2019-05-09T00:55:57.069Z,40.48
2019-05-09T00:58:28.632Z,37.05
2019-05-09T01:01:00.177Z,33.05
2019-05-09T01:03:33.751Z,35.15
2019-05-09T01:06:04.584Z,43.05
2019-05-09T01:08:35.915Z,43.90
2019-05-09T01:11:11.954Z,41.55
2019-05-09T01:13:40.423Z,51.35
2019-05-09T01:16:13.331Z,44.83
2019-05-09T01:18:45.170Z,33.75
2019-05-09T01:21:17.034Z,41.65
2019-05-09T01:23:48.394Z,37.55
2019-05-09T01:26:19.640Z,43.33
2019-05-09T01:28:53.561Z,45.45
2019-05-09T01:31:24.480Z,49.30
2019-05-09T01:33:57.457Z,46.13
2019-05-09T01:36:30.681Z,65.80
2019-05-09T01:39:03.302Z,74.72
2019-05-09T01:41:34.605Z,76.67
2019-05-09T01:44:06.273Z,78.37
2019-05-09T01:46:37.688Z,52.53
2019-05-09T01:49:08.979Z,53.40
2019-05-09T01:51:40.431Z,56.08
2019-05-09T01:54:13.330Z,47.67
2019-05-09T01:56:45.597Z,49.20
2019-05-09T01:59:17.252Z,41.85
2019-05-09T02:01:48.622Z,52.85
2019-05-09T02:04:19.761Z,51.15
2019-05-09T02:06:53.609Z,48.28
2019-05-09T02:09:24.582Z,44.60
2019-05-09T02:11:56.059Z,51.02
2019-05-09T02:14:31.917Z,43.78
2019-05-09T02:17:04.704Z,53.25
2019-05-09T02:19:40.665Z,58.42
2019-05-09T02:22:31.059Z,71.45
2019-05-09T02:25:04.266Z,77.50
2019-05-09T02:27:35.608Z,83.55
2019-05-09T02:30:07.476Z,93.92
2019-05-09T02:32:38.641Z,79.22
2019-05-09T02:35:10.323Z,74.82
2019-05-09T02:37:41.738Z,68.10
2019-05-09T02:40:13.095Z,73.55
2019-05-09T02:42:44.522Z,74.42
2019-05-09T02:45:15.540Z,73.78
2019-05-09T02:47:49.038Z,84.70
2019-05-09T02:50:20.357Z,77.25
2019-05-09T02:52:52.102Z,82.42
2019-05-09T02:55:23.359Z,65.87
2019-05-09T02:57:59.050Z,71.30
2019-05-09T03:03:20.036Z,58.02
2019-05-09T03:05:51.394Z,51.00
2019-05-09T03:08:22.951Z,44.00
2019-05-09T03:10:54.069Z,46.68
2019-05-09T03:13:28.799Z,45.92
2019-05-09T03:16:00.200Z,45.58
2019-05-09T03:18:32.039Z,44.00
2019-05-09T03:21:10.558Z,53.28
2019-05-09T03:23:42.016Z,44.53
2019-05-09T03:26:15.212Z,51.98
2019-05-09T03:28:49.335Z,51.10
2019-05-09T03:33:59.416Z,59.90
2019-05-09T03:36:29.219Z,56.13
2019-05-09T03:39:00.779Z,48.58
2019-05-09T03:41:32.342Z,54.42
2019-05-09T03:44:03.897Z,37.30
2019-05-09T03:46:38.392Z,46.95
2019-05-09T03:49:11.508Z,48.70
2019-05-09T03:51:42.760Z,62.80
2019-05-09T03:54:14.208Z,65.05
2019-05-09T03:56:57.233Z,59.45
2019-05-09T03:59:29.619Z,58.17
2019-05-09T04:02:01.247Z,44.18
2019-05-09T04:04:32.825Z,33.85
2019-05-09T04:07:04.276Z,19.62
2019-05-09T04:09:37.517Z,20.23
2019-05-09T04:12:09.441Z,22.45
2019-05-09T04:14:40.972Z,14.90
2019-05-09T04:17:12.860Z,12.03
2019-05-09T04:19:43.921Z,11.80
2019-05-09T04:22:15.156Z,8.03
2019-05-09T04:24:47.398Z,9.65
2019-05-09T04:27:20.222Z,8.83
2019-05-09T04:29:51.461Z,6.95
2019-05-09T04:32:22.715Z,12.45
2019-05-09T04:34:55.053Z,6.15
2019-05-09T04:37:28.118Z,8.08
2019-05-09T04:40:03.285Z,7.75
2019-05-09T04:42:34.971Z,4.72
2019-05-09T04:45:23.864Z,5.90
2019-05-09T04:47:55.080Z,6.97
2019-05-09T04:50:27.946Z,4.60
2019-05-09T04:52:59.211Z,5.72
2019-05-09T04:55:32.126Z,4.47
2019-05-09T04:58:03.686Z,5.72
2019-05-09T05:00:52.341Z,4.92
2019-05-09T05:03:23.604Z,4.40
2019-05-09T05:05:54.988Z,4.35
2019-05-09T05:08:28.512Z,4.80
2019-05-09T05:10:59.395Z,5.83
2019-05-09T05:13:31.593Z,13.93
2019-05-09T05:16:02.712Z,10.80
2019-05-09T05:18:33.865Z,8.28
2019-05-09T05:21:07.804Z,7.80
2019-05-09T05:23:50.180Z,6.72
2019-05-09T05:26:21.936Z,5.97
2019-05-09T05:28:52.878Z,8.33
2019-05-09T05:31:23.929Z,13.95
2019-05-09T05:34:08.278Z,11.48
2019-05-09T05:36:40.553Z,9.98
2019-05-09T05:39:14.303Z,8.75
2019-05-09T05:41:45.406Z,7.92
2019-05-09T05:44:17.816Z,12.03
2019-05-09T05:47:01.253Z,8.80
2019-05-09T05:49:33.267Z,7.10
2019-05-09T05:52:08.206Z,8.03
2019-05-09T05:54:41.594Z,25.20
2019-05-09T05:57:17.564Z,36.75
2019-05-09T06:02:20.456Z,65.30
2019-05-09T06:04:51.788Z,66.00
2019-05-09T06:07:23.655Z,78.02
2019-05-09T06:09:57.619Z,69.12
2019-05-09T06:12:34.884Z,41.30
2019-05-09T06:15:07.741Z,26.80
2019-05-09T06:17:39.092Z,26.82
2019-05-09T06:20:10.746Z,17.52
2019-05-09T06:22:42.649Z,21.97
2019-05-09T06:25:13.778Z,21.70
2019-05-09T06:27:48.088Z,13.38
2019-05-09T06:30:31.088Z,14.23
2019-05-09T06:33:05.121Z,20.25
2019-05-09T06:35:38.367Z,35.95
2019-05-09T06:38:09.939Z,59.70
2019-05-09T06:40:42.716Z,68.72
2019-05-09T06:43:21.466Z,70.62
2019-05-09T06:45:58.229Z,48.75
2019-05-09T06:48:29.588Z,22.48
2019-05-09T06:51:01.123Z,19.15
2019-05-09T06:53:32.658Z,23.15
2019-05-09T06:56:04.074Z,10.50
2019-05-09T06:58:40.155Z,11.00
2019-05-09T07:01:18.078Z,8.55
2019-05-09T07:03:52.909Z,8.38
2019-05-09T07:06:41.158Z,7.10
2019-05-09T07:09:14.287Z,7.40
2019-05-09T07:11:45.484Z,11.80
2019-05-09T07:14:39.148Z,15.38
2019-05-09T07:17:08.563Z,26.42
2019-05-09T07:19:43.463Z,26.93
2019-05-09T07:22:18.489Z,39.80
2019-05-09T07:25:09.829Z,41.28
2019-05-09T07:27:40.433Z,37.42
2019-05-09T07:32:45.307Z,70.03
2019-05-09T07:35:18.613Z,57.53
2019-05-09T07:37:51.038Z,61.53
2019-05-09T07:40:22.691Z,59.65
2019-05-09T07:42:54.222Z,66.77
2019-05-09T07:45:27.983Z,74.37
2019-05-09T07:47:58.897Z,54.10
2019-05-09T07:50:30.170Z,58.73
2019-05-09T07:53:01.399Z,47.98
2019-05-09T07:55:33.246Z,49.00
2019-05-09T07:58:04.809Z,38.45
2019-05-09T08:00:38.515Z,30.48
2019-05-09T08:03:12.933Z,41.40
2019-05-09T08:05:42.341Z,20.12
2019-05-09T08:08:18.549Z,17.35
2019-05-09T08:10:50.960Z,17.37
2019-05-09T08:13:24.028Z,32.25
2019-05-09T08:15:55.409Z,8.63
2019-05-09T08:18:28.199Z,10.48
2019-05-09T08:20:59.376Z,4.80
2019-05-09T08:23:32.200Z,2.15
2019-05-09T08:26:04.613Z,6.78
2019-05-09T08:28:38.562Z,3.12
2019-05-09T08:31:09.065Z,4.75
2019-05-09T08:33:42.794Z,3.67
2019-05-09T08:38:47.731Z,2.33
2019-05-09T08:41:18.897Z,6.10
2019-05-09T08:43:50.150Z,5.00
2019-05-09T08:46:21.566Z,4.55
2019-05-09T08:48:52.923Z,12.20
2019-05-09T08:51:51.763Z,21.90
2019-05-09T08:54:31.676Z,8.40
2019-05-09T08:57:03.234Z,36.65
2019-05-09T08:59:38.076Z,44.93
2019-05-09T09:02:18.553Z,58.58
2019-05-09T09:04:41.799Z,32.25
2019-05-09T09:07:13.455Z,7.33
2019-05-09T09:09:44.815Z,16.00
2019-05-09T09:12:27.303Z,10.70
2019-05-09T09:14:49.115Z,14.83
2019-05-09T09:17:20.813Z,16.17
2019-05-09T09:19:52.061Z,23.80
2019-05-09T09:22:23.295Z,6.12
2019-05-09T09:24:54.560Z,5.05
2019-05-09T09:27:27.364Z,7.50
2019-05-09T09:30:03.662Z,8.53
2019-05-09T09:32:31.288Z,15.08
2019-05-09T09:35:02.942Z,17.85
2019-05-09T09:37:45.975Z,6.45
2019-05-09T09:40:08.935Z,7.33
2019-05-09T09:42:40.076Z,18.10
2019-05-09T09:45:11.463Z,14.43
2019-05-09T09:47:42.806Z,13.58
2019-05-09T09:50:14.128Z,7.42
2019-05-09T09:52:45.210Z,5.67
2019-05-09T09:55:18.469Z,5.83
2019-05-09T09:57:50.130Z,3.35
2019-05-09T10:00:53.727Z,5.87
2019-05-09T10:03:25.091Z,6.65
2019-05-09T10:05:57.766Z,11.68
2019-05-09T10:08:29.019Z,14.38
2019-05-09T10:11:00.793Z,13.43
2019-05-09T10:13:32.329Z,7.85
2019-05-09T10:16:05.137Z,4.55
2019-05-09T10:18:47.326Z,2.42
2019-05-09T10:21:23.152Z,3.27
2019-05-09T10:23:54.542Z,2.22
2019-05-09T10:26:28.404Z,2.42
2019-05-09T10:28:59.149Z,4.22
2019-05-09T10:31:30.046Z,5.65
2019-05-09T10:34:01.424Z,3.55
2019-05-09T10:36:32.831Z,4.83
2019-05-09T10:39:08.149Z,5.10
2019-05-09T10:41:38.406Z,8.00
2019-05-09T10:44:11.398Z,3.65
2019-05-09T10:46:57.329Z,3.95
2019-05-09T10:49:23.322Z,4.87
2019-05-09T10:51:54.878Z,5.37
2019-05-09T10:54:27.857Z,5.10
2019-05-09T10:56:58.902Z,5.78
2019-05-09T10:59:30.111Z,6.75
2019-05-09T11:02:01.338Z,9.73
2019-05-09T11:04:32.865Z,4.97
2019-05-09T11:07:04.118Z,3.98
2019-05-09T11:09:35.394Z,3.58
2019-05-09T11:12:07.848Z,5.22
2019-05-09T11:14:39.642Z,4.40
2019-05-09T11:17:18.178Z,5.83
2019-05-09T11:19:43.531Z,5.75
2019-05-09T11:22:14.579Z,5.65
2019-05-09T11:24:48.191Z,16.97
2019-05-09T11:27:18.755Z,16.27
2019-05-09T11:29:50.169Z,14.60
2019-05-09T11:32:21.127Z,12.43
2019-05-09T11:34:52.586Z,12.13
2019-05-09T11:37:24.021Z,5.70
2019-05-09T11:39:57.822Z,4.92
2019-05-09T11:42:28.654Z,9.80
2019-05-09T11:45:00.047Z,18.48
2019-05-09T11:47:39.787Z,17.77
2019-05-09T11:50:08.558Z,51.63
2019-05-09T11:52:39.455Z,43.55
2019-05-09T11:55:28.459Z,63.65
2019-05-09T11:57:43.543Z,57.62
2019-05-09T12:00:14.820Z,61.88
2019-05-09T12:02:46.271Z,42.60
2019-05-09T12:05:19.277Z,45.52
2019-05-09T12:07:50.663Z,44.05
2019-05-09T12:10:22.851Z,41.55
2019-05-09T12:12:54.497Z,41.73
2019-05-09T12:15:29.027Z,38.30
2019-05-09T12:18:07.774Z,41.88
2019-05-09T12:20:33.480Z,33.20
2019-05-09T12:23:07.791Z,34.23
2019-05-09T12:25:38.828Z,19.48
2019-05-09T12:28:10.260Z,20.20
2019-05-09T12:30:42.543Z,13.20
2019-05-09T12:33:13.699Z,12.07
2019-05-09T12:35:47.758Z,13.00
2019-05-09T12:38:19.342Z,14.28
2019-05-09T12:40:50.794Z,10.53
2019-05-09T12:43:22.346Z,15.03
2019-05-09T12:45:54.546Z,10.15
2019-05-09T12:48:27.961Z,18.32
2019-05-09T12:50:59.209Z,18.00
2019-05-09T12:53:30.517Z,21.73
2019-05-09T12:56:02.205Z,22.93
2019-05-09T12:58:34.075Z,19.65
2019-05-09T13:01:07.572Z,15.50
2019-05-09T13:03:39.275Z,17.50
2019-05-09T13:06:10.987Z,21.87
2019-05-09T13:08:43.235Z,22.10
2019-05-09T13:11:14.561Z,22.25
2019-05-09T13:13:48.027Z,25.30
2019-05-09T13:16:20.780Z,31.05
2019-05-09T13:19:03.050Z,24.77
2019-05-09T13:21:34.235Z,36.08
2019-05-09T13:24:08.095Z,39.70
2019-05-09T13:26:38.944Z,39.10
2019-05-09T13:29:10.173Z,23.00
2019-05-09T13:31:41.709Z,25.70
2019-05-09T13:34:13.204Z,26.80
2019-05-09T13:36:44.868Z,28.45
2019-05-09T13:39:17.986Z,32.30
2019-05-09T13:41:49.413Z,30.30
2019-05-09T13:44:20.555Z,38.08
2019-05-09T13:46:53.069Z,39.83
2019-05-09T13:49:24.496Z,46.23
2019-05-09T13:52:01.312Z,53.17
2019-05-09T13:54:30.111Z,62.98
2019-05-09T13:57:01.738Z,72.60
2019-05-09T13:59:32.868Z,71.67
2019-05-09T14:02:04.321Z,79.10
2019-05-09T14:04:35.704Z,88.47
2019-05-09T14:07:08.320Z,69.53
2019-05-09T14:09:39.663Z,68.92
2019-05-09T14:12:11.070Z,46.18
2019-05-09T14:14:42.378Z,36.03
2019-05-09T14:17:14.111Z,36.60
2019-05-09T14:19:50.384Z,34.20
2019-05-09T14:22:19.017Z,33.70
2019-05-09T14:24:50.599Z,26.42
2019-05-09T14:27:22.160Z,16.67
2019-05-09T14:29:53.499Z,15.05
2019-05-09T14:32:26.763Z,14.85
2019-05-09T14:34:58.647Z,8.45
2019-05-09T14:37:31.563Z,14.15
2019-05-09T14:40:04.794Z,6.20
2019-05-09T14:42:35.810Z,5.72
2019-05-09T14:45:08.474Z,3.67
2019-05-09T14:47:42.435Z,4.65
2019-05-09T14:50:13.717Z,4.90
2019-05-09T14:52:48.862Z,3.60
2019-05-09T14:55:19.020Z,3.33
2019-05-09T14:57:50.421Z,2.25
2019-05-09T15:00:21.888Z,5.00
2019-05-09T15:02:53.301Z,4.45
2019-05-09T15:05:24.782Z,4.75
2019-05-09T15:07:58.996Z,2.98
2019-05-09T15:10:28.923Z,3.62
2019-05-09T15:12:59.959Z,4.10
2019-05-09T15:15:32.727Z,6.42
2019-05-09T15:18:07.941Z,6.72
2019-05-09T15:20:38.652Z,6.75
2019-05-09T15:23:10.076Z,6.08
2019-05-09T15:25:41.656Z,7.55
2019-05-09T15:28:12.881Z,11.68
2019-05-09T15:30:44.336Z,10.28
2019-05-09T15:33:17.596Z,7.45
2019-05-09T15:35:48.876Z,6.60
2019-05-09T15:38:22.449Z,6.67
2019-05-09T15:40:53.116Z,7.30
2019-05-09T15:43:24.477Z,6.53
2019-05-09T15:46:08.326Z,6.95
2019-05-09T15:48:41.099Z,7.58
2019-05-09T15:51:12.970Z,8.13
2019-05-09T15:53:44.262Z,8.35
2019-05-09T15:56:15.761Z,8.80
2019-05-09T15:58:49.004Z,9.83
2019-05-09T16:01:20.275Z,6.92
2019-05-09T16:03:51.741Z,9.78
2019-05-09T16:06:22.928Z,4.60
2019-05-09T16:08:58.578Z,5.62
2019-05-09T16:14:03.205Z,3.50
2019-05-09T16:16:35.562Z,5.92
2019-05-09T16:19:09.450Z,6.55
2019-05-09T16:21:41.559Z,8.50
2019-05-09T16:24:12.887Z,10.03
2019-05-09T16:26:44.300Z,7.55
2019-05-09T16:29:17.769Z,6.97
2019-05-09T16:31:48.420Z,4.22
2019-05-09T16:34:19.794Z,3.85
2019-05-09T16:36:50.844Z,4.45
2019-05-09T16:39:22.433Z,3.37
2019-05-09T16:41:53.546Z,3.00
2019-05-09T16:44:24.989Z,4.03
2019-05-09T16:46:57.652Z,2.77
2019-05-09T16:49:29.524Z,7.05
2019-05-09T16:52:00.775Z,4.42
2019-05-09T16:54:33.565Z,5.62
2019-05-09T16:57:05.128Z,5.83
2019-05-09T16:59:38.829Z,4.62
2019-05-09T17:02:18.918Z,5.08
2019-05-09T17:04:42.980Z,4.12
2019-05-09T17:07:14.496Z,3.60
2019-05-09T17:09:48.357Z,4.37
2019-05-09T17:12:19.030Z,5.37
2019-05-09T17:14:50.949Z,3.33
2019-05-09T17:17:22.370Z,4.08
2019-05-09T17:19:54.260Z,3.62
2019-05-09T17:22:43.849Z,3.92
2019-05-09T17:25:15.395Z,4.03
2019-05-09T17:27:48.314Z,5.35
2019-05-09T17:30:20.345Z,7.37
2019-05-09T17:32:53.756Z,8.78
2019-05-09T17:35:24.901Z,10.32
2019-05-09T17:37:56.513Z,8.45
2019-05-09T17:40:28.181Z,10.30
2019-05-09T17:42:59.400Z,15.72
2019-05-09T17:45:31.029Z,15.35
2019-05-09T17:48:02.545Z,16.30
2019-05-09T17:50:34.246Z,13.38
2019-05-09T17:53:08.422Z,10.25
2019-05-09T17:55:39.080Z,10.23
2019-05-09T17:58:25.638Z,13.08
2019-05-09T18:00:48.638Z,20.35
2019-05-09T18:03:20.636Z,14.33
2019-05-09T18:05:52.177Z,10.10
2019-05-09T18:08:23.774Z,8.60
2019-05-09T18:10:58.062Z,8.58
2019-05-09T18:13:30.862Z,22.02
2019-05-09T18:16:02.102Z,16.77
2019-05-09T18:18:33.545Z,9.25
2019-05-09T18:21:04.808Z,9.13
2019-05-09T18:23:38.753Z,10.78
2019-05-09T18:26:10.430Z,9.00
2019-05-09T18:28:41.727Z,13.48
2019-05-09T18:31:13.423Z,6.22
2019-05-09T18:33:47.686Z,4.95
2019-05-09T18:36:19.168Z,11.87
2019-05-09T18:38:50.624Z,14.35
2019-05-09T18:41:23.155Z,6.15
2019-05-09T18:43:54.561Z,3.85
2019-05-09T18:46:25.008Z,6.05
2019-05-09T18:48:55.863Z,7.78
2019-05-09T18:51:28.645Z,8.63
2019-05-09T18:53:59.974Z,5.10
2019-05-09T18:56:31.070Z,5.65
2019-05-09T18:59:02.660Z,3.33
2019-05-09T19:01:34.211Z,3.75
2019-05-09T19:04:05.893Z,5.87
2019-05-09T19:06:39.843Z,5.10
2019-05-09T19:09:10.131Z,3.27
2019-05-09T19:11:41.734Z,3.72
2019-05-09T19:14:14.565Z,5.47
2019-05-09T19:16:53.602Z,5.20
2019-05-09T19:19:42.885Z,6.67
2019-05-09T19:22:22.348Z,4.00
2019-05-09T19:24:47.449Z,4.65
2019-05-09T19:27:18.768Z,6.00
2019-05-09T19:29:50.320Z,4.65
2019-05-09T19:32:22.172Z,4.67
2019-05-09T19:34:53.535Z,3.72
2019-05-09T19:37:25.107Z,5.75
2019-05-09T19:39:56.435Z,10.15
2019-05-09T19:42:27.795Z,7.22
2019-05-09T19:45:01.000Z,7.45
2019-05-09T19:47:32.292Z,6.20
2019-05-09T19:50:06.839Z,5.35
2019-05-09T19:52:39.584Z,6.35
2019-05-09T19:55:11.731Z,17.80
2019-05-09T19:57:43.362Z,14.25
2019-05-09T20:00:15.684Z,10.25
2019-05-09T20:02:47.315Z,8.88
2019-05-09T20:05:18.846Z,7.33
2019-05-09T20:07:50.295Z,40.03
2019-05-09T20:10:25.751Z,11.45
2019-05-09T20:13:08.671Z,13.35
2019-05-09T20:15:40.817Z,15.65
2019-05-09T20:18:12.533Z,19.40
2019-05-09T20:20:46.168Z,9.48
2019-05-09T20:23:18.279Z,7.97
2019-05-09T20:25:49.846Z,7.58
2019-05-09T20:28:23.081Z,6.70
2019-05-09T20:30:54.277Z,5.85
2019-05-09T20:33:25.767Z,6.30
2019-05-09T20:35:57.728Z,7.58
2019-05-09T20:38:29.449Z,6.62
2019-05-09T20:41:03.250Z,7.97
2019-05-09T20:43:35.976Z,12.95
2019-05-09T20:46:10.256Z,22.73
2019-05-09T20:48:40.763Z,10.45
2019-05-09T20:51:14.124Z,11.08
2019-05-09T20:53:45.974Z,13.20
2019-05-09T20:56:18.001Z,8.30
2019-05-09T20:58:49.672Z,7.25
2019-05-09T21:01:21.032Z,5.75
2019-05-09T21:04:00.116Z,15.58
2019-05-09T21:06:28.472Z,11.85
2019-05-09T21:09:03.573Z,12.00
2019-05-09T21:11:38.974Z,16.42
2019-05-09T21:14:10.695Z,17.10
2019-05-09T21:16:42.457Z,19.80
2019-05-09T21:19:14.304Z,15.70
2019-05-09T21:21:44.960Z,18.12
2019-05-09T21:24:16.362Z,23.25
2019-05-09T21:26:48.293Z,21.95
2019-05-09T21:29:20.126Z,20.85
2019-05-09T21:31:52.344Z,17.98
2019-05-09T21:34:24.296Z,23.57
2019-05-09T21:36:57.149Z,24.75
2019-05-09T21:39:30.832Z,22.90
2019-05-09T21:42:03.451Z,19.82
2019-05-09T21:44:35.491Z,17.45
2019-05-09T21:47:06.645Z,17.82
2019-05-09T21:49:38.649Z,12.90
2019-05-09T21:52:10.382Z,16.90
2019-05-09T21:54:42.066Z,16.97
2019-05-09T21:57:13.362Z,14.18
2019-05-09T21:59:46.042Z,9.95
2019-05-09T22:02:17.602Z,11.95
2019-05-09T22:04:49.348Z,12.10
2019-05-09T22:07:21.112Z,9.48
2019-05-09T22:09:52.201Z,7.62
2019-05-09T22:12:23.555Z,11.57
2019-05-09T22:14:55.173Z,11.15
2019-05-09T22:17:42.057Z,7.67
2019-05-09T22:20:13.773Z,6.67
2019-05-09T22:22:45.307Z,9.85
2019-05-09T22:25:17.304Z,6.90
2019-05-09T22:27:48.397Z,8.38
2019-05-09T22:30:21.646Z,13.18
2019-05-09T22:32:54.951Z,8.98
2019-05-09T22:35:26.381Z,8.33
2019-05-09T22:37:57.493Z,8.10
2019-05-09T22:40:28.996Z,7.70
2019-05-09T22:43:00.241Z,8.25
2019-05-09T22:45:32.209Z,7.87
2019-05-09T22:48:03.866Z,10.60
2019-05-09T22:50:36.340Z,7.65
2019-05-09T22:53:07.800Z,8.13
2019-05-09T22:55:38.902Z,9.40
2019-05-09T22:58:10.529Z,10.88
2019-05-09T23:00:42.785Z,7.47
2019-05-09T23:03:15.400Z,8.23
2019-05-09T23:05:47.539Z,11.33
2019-05-09T23:08:18.886Z,9.53
2019-05-09T23:10:53.377Z,8.78
2019-05-09T23:13:24.252Z,8.20
2019-05-09T23:15:55.810Z,9.73
2019-05-09T23:18:27.064Z,8.25
2019-05-09T23:20:58.233Z,13.53
2019-05-09T23:23:34.151Z,13.38
2019-05-09T23:26:05.624Z,21.55
2019-05-09T23:28:36.992Z,8.28
2019-05-09T23:31:09.860Z,9.73
2019-05-09T23:33:42.832Z,12.00
2019-05-09T23:36:14.247Z,15.95
2019-05-09T23:39:03.268Z,12.28
2019-05-09T23:41:34.952Z,12.43
2019-05-09T23:44:06.471Z,10.10
2019-05-09T23:46:37.826Z,11.48
2019-05-09T23:49:08.990Z,17.70
2019-05-09T23:51:45.105Z,10.08
2019-05-09T23:54:47.421Z,14.80
